createdAt,value
2022-09-02T00:00:21.437Z,8.23
2022-09-02T00:02:55.121Z,7.78
2022-09-02T00:05:28.376Z,7.47
2022-09-02T00:08:01.378Z,7.15
2022-09-02T00:10:37.029Z,7.15
2022-09-02T00:13:11.955Z,6.20
2022-09-02T00:16:06.100Z,6.20
2022-09-02T00:18:39.833Z,5.97
2022-09-02T00:21:15.315Z,5.83
2022-09-02T00:23:48.242Z,5.47
2022-09-02T00:26:21.131Z,4.75
2022-09-02T00:28:55.926Z,5.28
2022-09-02T00:31:31.195Z,4.60
2022-09-02T00:34:06.101Z,4.95
2022-09-02T00:36:40.490Z,4.10
2022-09-02T00:39:13.613Z,4.95
2022-09-02T00:41:47.009Z,4.97
2022-09-02T00:44:20.926Z,4.70
2022-09-02T00:46:54.017Z,5.03
2022-09-02T00:49:31.246Z,5.05
2022-09-02T00:52:40.722Z,5.67
2022-09-02T00:55:23.592Z,5.15
2022-09-02T00:58:09.336Z,5.03
2022-09-02T01:00:45.211Z,5.85
2022-09-02T01:03:20.805Z,5.80
2022-09-02T01:05:54.279Z,5.65
2022-09-02T01:11:06.374Z,5.97
2022-09-02T01:13:42.918Z,6.00
2022-09-02T01:16:20.529Z,6.78
2022-09-02T01:18:56.635Z,6.47
2022-09-02T01:21:29.560Z,6.25
2022-09-02T01:24:02.448Z,7.35
2022-09-02T01:26:36.075Z,6.78
2022-09-02T01:29:09.006Z,6.78
2022-09-02T01:31:42.898Z,6.92
2022-09-02T01:36:50.063Z,6.33
2022-09-02T01:39:23.056Z,5.95
2022-09-02T01:41:57.761Z,5.17
2022-09-02T01:44:31.336Z,5.35
2022-09-02T01:47:25.273Z,5.75
2022-09-02T01:49:58.554Z,5.20
2022-09-02T01:52:34.404Z,5.33
2022-09-02T01:55:08.251Z,5.20
2022-09-02T01:57:42.384Z,5.20
2022-09-02T02:00:17.346Z,4.97
2022-09-02T02:02:50.413Z,5.75
2022-09-02T02:05:24.824Z,6.05
2022-09-02T02:07:59.769Z,6.40
2022-09-02T02:10:32.780Z,6.90
2022-09-02T02:13:06.007Z,6.65
2022-09-02T02:15:44.091Z,6.37
2022-09-02T02:18:17.581Z,5.95
2022-09-02T02:20:51.825Z,6.75
2022-09-02T02:23:25.197Z,7.10
2022-09-02T02:25:59.440Z,7.37
2022-09-02T02:28:32.802Z,7.67
2022-09-02T02:31:10.771Z,7.65
2022-09-02T02:33:43.964Z,8.20
2022-09-02T02:36:18.614Z,7.85
2022-09-02T02:38:51.820Z,8.20
2022-09-02T02:41:25.070Z,7.30
2022-09-02T02:43:58.129Z,7.47
2022-09-02T02:46:31.663Z,8.10
2022-09-02T02:49:06.124Z,7.60
2022-09-02T02:54:14.224Z,10.20
2022-09-02T02:56:48.071Z,15.15
2022-09-02T02:59:21.028Z,16.07
2022-09-02T03:01:54.265Z,17.85
2022-09-02T03:04:27.975Z,19.40
2022-09-02T03:07:01.299Z,20.88
2022-09-02T03:09:36.185Z,22.70
2022-09-02T03:12:11.593Z,24.37
2022-09-02T03:14:45.121Z,27.75
2022-09-02T03:17:20.576Z,29.25
2022-09-02T03:19:54.590Z,31.80
2022-09-02T03:22:28.897Z,32.20
2022-09-02T03:25:02.303Z,33.40
2022-09-02T03:27:36.192Z,37.42
2022-09-02T03:30:12.438Z,38.63
2022-09-02T03:32:47.204Z,38.80
2022-09-02T03:35:21.959Z,41.23
2022-09-02T03:37:57.419Z,43.38
2022-09-02T03:40:43.194Z,41.00
2022-09-02T03:43:16.721Z,39.90
2022-09-02T03:45:50.325Z,42.88
2022-09-02T03:48:23.541Z,45.08
2022-09-02T03:50:56.415Z,47.73
2022-09-02T03:53:29.725Z,48.83
2022-09-02T03:56:13.081Z,50.23
2022-09-02T03:58:48.087Z,55.67
2022-09-02T04:01:25.013Z,59.88
2022-09-02T04:04:00.307Z,64.95
2022-09-02T04:06:34.640Z,75.17
2022-09-02T04:09:08.002Z,71.45
2022-09-02T04:11:44.844Z,79.20
2022-09-02T04:14:18.565Z,84.00
2022-09-02T04:16:53.023Z,89.97
2022-09-02T04:19:26.809Z,89.60
2022-09-02T04:21:59.840Z,84.17
2022-09-02T04:24:33.919Z,82.25
2022-09-02T04:27:07.791Z,77.12
2022-09-02T04:29:41.781Z,70.70
2022-09-02T04:32:16.176Z,68.57
2022-09-02T04:34:49.943Z,65.15
2022-09-02T04:37:24.486Z,64.45
2022-09-02T04:39:58.616Z,64.35
2022-09-02T04:42:31.659Z,64.58
2022-09-02T04:45:05.558Z,68.60
2022-09-02T04:47:39.058Z,67.62
2022-09-02T04:50:12.830Z,63.43
2022-09-02T04:52:48.673Z,67.35
2022-09-02T04:55:23.206Z,64.80
2022-09-02T04:57:56.999Z,64.85
2022-09-02T05:00:30.384Z,66.87
2022-09-02T05:03:05.876Z,67.15
2022-09-02T05:05:40.789Z,64.70
2022-09-02T05:08:16.017Z,70.95
2022-09-02T05:10:51.287Z,74.70
2022-09-02T05:13:26.327Z,76.55
2022-09-02T05:15:59.594Z,75.92
2022-09-02T05:18:35.031Z,78.83
2022-09-02T05:21:08.694Z,74.37
2022-09-02T05:23:42.117Z,71.90
2022-09-02T05:26:15.234Z,71.70
2022-09-02T05:31:22.107Z,56.70
2022-09-02T05:33:56.155Z,48.60
2022-09-02T05:36:29.428Z,42.53
2022-09-02T05:39:02.678Z,40.92
2022-09-02T05:41:35.586Z,49.42
2022-09-02T05:44:09.205Z,40.20
2022-09-02T05:46:48.551Z,35.83
2022-09-02T05:49:22.246Z,36.30
2022-09-02T05:52:02.048Z,34.48
2022-09-02T05:54:43.553Z,32.90
2022-09-02T05:57:19.926Z,31.75
2022-09-02T06:00:00.738Z,32.98
2022-09-02T06:02:50.373Z,28.57
2022-09-02T06:05:25.149Z,26.73
2022-09-02T06:10:34.818Z,26.00
2022-09-02T06:13:10.309Z,25.97
2022-09-02T06:15:46.462Z,25.60
2022-09-02T06:18:21.405Z,27.17
2022-09-02T06:20:57.465Z,22.87
2022-09-02T06:23:31.956Z,22.30
2022-09-02T06:26:05.854Z,20.82
2022-09-02T06:28:39.263Z,19.60
2022-09-02T06:31:20.884Z,18.40
2022-09-02T06:33:57.263Z,18.87
2022-09-02T06:36:31.471Z,20.82
2022-09-02T06:39:06.311Z,21.45
2022-09-02T06:41:40.774Z,17.73
2022-09-02T06:44:16.297Z,15.98
2022-09-02T06:47:11.220Z,15.10
2022-09-02T06:49:45.460Z,19.80
2022-09-02T06:52:20.923Z,20.82
2022-09-02T06:54:55.341Z,17.48
2022-09-02T06:57:34.242Z,18.12
2022-09-02T07:00:09.307Z,17.95
2022-09-02T07:02:42.382Z,17.75
2022-09-02T07:05:18.896Z,18.42
2022-09-02T07:07:54.531Z,20.02
2022-09-02T07:10:28.129Z,18.62
2022-09-02T07:13:02.251Z,16.55
2022-09-02T07:15:36.019Z,20.45
2022-09-02T07:18:09.193Z,17.30
2022-09-02T07:20:43.936Z,16.20
2022-09-02T07:23:18.580Z,14.73
2022-09-02T07:25:51.654Z,12.98
2022-09-02T07:28:26.109Z,13.72
2022-09-02T07:31:00.253Z,11.33
2022-09-02T07:33:34.421Z,9.85
2022-09-02T07:36:10.925Z,9.43
2022-09-02T07:38:45.319Z,7.08
2022-09-02T07:41:19.131Z,5.72
2022-09-02T07:43:54.371Z,6.47
2022-09-02T07:46:27.622Z,6.00
2022-09-02T07:49:06.016Z,5.40
2022-09-02T07:51:44.153Z,4.53
2022-09-02T07:54:19.019Z,4.03
2022-09-02T07:56:52.451Z,4.33
2022-09-02T07:59:26.533Z,5.05
2022-09-02T08:02:00.789Z,3.70
2022-09-02T08:04:35.226Z,4.00
2022-09-02T08:07:09.924Z,4.10
2022-09-02T08:09:43.027Z,3.60
2022-09-02T08:12:18.907Z,3.83
2022-09-02T08:14:51.174Z,3.60
2022-09-02T08:17:24.416Z,3.00
2022-09-02T08:19:58.509Z,2.72
2022-09-02T08:22:36.433Z,3.40
2022-09-02T08:25:10.221Z,4.67
2022-09-02T08:27:46.724Z,3.42
2022-09-02T08:30:19.651Z,3.40
2022-09-02T08:32:53.938Z,2.60
2022-09-02T08:35:27.070Z,3.05
2022-09-02T08:38:03.720Z,3.60
2022-09-02T08:40:42.320Z,2.92
2022-09-02T08:43:32.451Z,2.80
2022-09-02T08:46:06.829Z,2.50
2022-09-02T08:48:53.247Z,2.55
2022-09-02T08:51:53.135Z,3.10
2022-09-02T08:54:55.960Z,3.55
2022-09-02T08:57:28.932Z,3.62
2022-09-02T09:00:03.398Z,2.60
2022-09-02T09:02:47.665Z,2.90
2022-09-02T09:06:04.861Z,2.85
2022-09-02T09:09:18.594Z,3.50
2022-09-02T09:15:03.294Z,2.92
2022-09-02T09:17:59.070Z,2.90
2022-09-02T09:20:38.945Z,3.50
2022-09-02T09:23:35.417Z,2.87
2022-09-02T09:26:17.921Z,3.33
2022-09-02T09:28:52.099Z,3.65
2022-09-02T09:31:30.056Z,3.40
2022-09-02T09:34:12.287Z,3.15
2022-09-02T09:36:49.437Z,4.03
2022-09-02T09:39:46.450Z,4.20
2022-09-02T09:42:22.588Z,4.60
2022-09-02T09:44:56.529Z,4.20
2022-09-02T09:47:29.876Z,4.50
2022-09-02T09:50:17.842Z,5.95
2022-09-02T09:52:52.148Z,4.65
2022-09-02T09:55:27.670Z,4.87
2022-09-02T09:58:05.664Z,3.95
2022-09-02T10:00:40.850Z,4.25
2022-09-02T10:03:23.971Z,4.87
2022-09-02T10:06:00.180Z,4.43
2022-09-02T10:08:33.452Z,4.12
2022-09-02T10:11:08.662Z,4.30
2022-09-02T10:13:42.529Z,4.20
2022-09-02T10:16:29.725Z,4.35
2022-09-02T10:19:26.892Z,4.95
2022-09-02T10:22:20.460Z,4.65
2022-09-02T10:25:01.549Z,4.20
2022-09-02T10:28:21.904Z,7.22
2022-09-02T10:31:25.061Z,5.92
2022-09-02T10:34:41.818Z,5.15
2022-09-02T10:37:26.089Z,5.10
2022-09-02T10:40:19.911Z,4.85
2022-09-02T10:43:15.427Z,4.65
2022-09-02T10:45:52.636Z,5.22
2022-09-02T10:48:57.093Z,5.15
2022-09-02T10:51:59.909Z,5.20
2022-09-02T10:55:14.645Z,5.62
2022-09-02T10:58:00.943Z,7.22
2022-09-02T11:00:35.978Z,6.70
2022-09-02T11:03:37.982Z,5.78
2022-09-02T11:06:58.850Z,6.15
2022-09-02T11:09:40.745Z,6.30
2022-09-02T11:12:34.740Z,7.05
2022-09-02T11:15:22.326Z,6.83
2022-09-02T11:18:31.633Z,6.28
2022-09-02T11:21:31.688Z,6.50
2022-09-02T11:24:15.754Z,7.37
2022-09-02T11:27:11.809Z,6.83
2022-09-02T11:30:06.874Z,6.97
2022-09-02T11:33:00.116Z,7.47
2022-09-02T11:35:39.562Z,8.05
2022-09-02T11:38:47.359Z,7.40
2022-09-02T11:42:00.098Z,7.90
2022-09-02T11:44:58.879Z,8.38
2022-09-02T11:47:55.459Z,8.48
2022-09-02T11:50:47.937Z,9.95
2022-09-02T11:53:32.482Z,8.80
2022-09-02T11:56:21.284Z,8.93
2022-09-02T11:58:54.648Z,8.20
2022-09-02T12:01:43.653Z,8.73
2022-09-02T12:07:12.335Z,9.23
2022-09-02T12:09:50.273Z,9.58
2022-09-02T12:12:44.014Z,9.35
2022-09-02T12:15:20.024Z,9.75
2022-09-02T12:17:59.458Z,9.75
2022-09-02T12:20:50.662Z,9.83
2022-09-02T12:23:54.175Z,9.58
2022-09-02T12:26:44.248Z,9.73
2022-09-02T12:29:27.592Z,10.35
2022-09-02T12:32:00.518Z,10.95
2022-09-02T12:34:47.219Z,11.38
2022-09-02T12:37:54.210Z,10.95
2022-09-02T12:40:33.061Z,11.90
2022-09-02T12:43:28.296Z,11.00
2022-09-02T12:46:09.494Z,11.08
2022-09-02T12:48:47.111Z,11.78
2022-09-02T12:52:00.139Z,10.63
2022-09-02T12:54:41.591Z,10.58
2022-09-02T12:57:16.328Z,10.23
2022-09-02T12:59:51.617Z,10.63
2022-09-02T13:03:11.987Z,10.63
2022-09-02T13:05:58.712Z,11.12
2022-09-02T13:08:54.846Z,11.18
2022-09-02T13:12:08.587Z,11.83
2022-09-02T13:15:36.727Z,11.33
2022-09-02T13:18:20.053Z,11.45
2022-09-02T13:21:18.548Z,11.50
2022-09-02T13:24:13.439Z,11.97
2022-09-02T13:27:24.206Z,11.43
2022-09-02T13:30:43.442Z,11.65
2022-09-02T13:33:16.811Z,12.30
2022-09-02T13:35:52.850Z,13.40
2022-09-02T13:38:29.286Z,12.73
2022-09-02T13:41:02.820Z,12.88
2022-09-02T13:43:37.183Z,11.63
2022-09-02T13:46:10.752Z,11.03
2022-09-02T13:48:44.950Z,11.85
2022-09-02T13:51:17.956Z,11.20
2022-09-02T13:54:22.079Z,10.80
2022-09-02T13:56:48.354Z,11.33
2022-09-02T13:59:36.565Z,10.98
2022-09-02T14:02:34.480Z,11.50
2022-09-02T14:05:25.400Z,12.10
2022-09-02T14:08:01.383Z,10.85
2022-09-02T14:10:34.634Z,10.00
2022-09-02T14:13:08.693Z,11.18
2022-09-02T14:15:42.068Z,10.55
2022-09-02T14:18:23.311Z,10.95
2022-09-02T14:21:18.255Z,11.68
2022-09-02T14:23:55.141Z,10.45
2022-09-02T14:26:40.654Z,12.07
2022-09-02T14:29:19.164Z,11.20
2022-09-02T14:32:31.820Z,10.95
2022-09-02T14:35:24.454Z,9.15
2022-09-02T14:38:01.242Z,8.70
2022-09-02T14:40:37.606Z,9.05
2022-09-02T14:43:16.342Z,8.88
2022-09-02T14:45:50.887Z,9.83
2022-09-02T14:48:27.860Z,9.40
2022-09-02T14:51:06.701Z,10.53
2022-09-02T14:53:40.183Z,10.78
2022-09-02T14:56:15.770Z,9.83
2022-09-02T14:58:50.221Z,10.68
2022-09-02T15:01:24.766Z,10.10
2022-09-02T15:03:58.163Z,8.85
2022-09-02T15:06:31.129Z,6.92
2022-09-02T15:09:04.316Z,6.75
2022-09-02T15:11:42.904Z,7.70
2022-09-02T15:14:15.772Z,7.10
2022-09-02T15:16:50.273Z,6.62
2022-09-02T15:19:23.272Z,7.35
2022-09-02T15:21:56.422Z,6.83
2022-09-02T15:24:29.613Z,7.20
2022-09-02T15:27:02.541Z,7.42
2022-09-02T15:29:35.769Z,7.75
2022-09-02T15:32:08.903Z,7.83
2022-09-02T15:34:42.923Z,7.60
2022-09-02T15:37:15.861Z,9.40
2022-09-02T15:39:49.788Z,9.40
2022-09-02T15:42:22.803Z,9.78
2022-09-02T15:44:57.992Z,9.25
2022-09-02T15:47:31.232Z,7.92
2022-09-02T15:50:05.305Z,10.70
2022-09-02T15:52:39.431Z,8.90
2022-09-02T15:55:12.585Z,8.93
2022-09-02T15:57:46.201Z,9.43
2022-09-02T16:00:19.951Z,8.40
2022-09-02T16:02:55.141Z,7.87
2022-09-02T16:05:28.235Z,9.50
2022-09-02T16:08:01.822Z,10.72
2022-09-02T16:10:38.508Z,10.58
2022-09-02T16:13:11.426Z,7.95
2022-09-02T16:15:45.489Z,9.05
2022-09-02T16:18:19.844Z,7.62
2022-09-02T16:20:52.719Z,8.85
2022-09-02T16:23:25.774Z,7.35
2022-09-02T16:26:24.371Z,9.65
2022-09-02T16:29:00.715Z,9.38
2022-09-02T16:31:35.653Z,8.65
2022-09-02T16:34:11.146Z,6.90
2022-09-02T16:36:48.158Z,6.08
2022-09-02T16:39:22.898Z,7.08
2022-09-02T16:41:55.733Z,7.30
2022-09-02T16:44:29.640Z,7.67
2022-09-02T16:47:02.598Z,7.53
2022-09-02T16:49:36.996Z,10.72
2022-09-02T16:52:10.029Z,12.88
2022-09-02T16:54:44.157Z,13.28
2022-09-02T16:57:17.335Z,15.93
2022-09-02T16:59:52.035Z,15.88
2022-09-02T17:02:25.581Z,17.62
2022-09-02T17:04:58.662Z,18.15
2022-09-02T17:07:31.998Z,19.67
2022-09-02T17:10:06.377Z,19.35
2022-09-02T17:12:43.039Z,19.87
2022-09-02T17:17:47.013Z,21.90
2022-09-02T17:20:20.092Z,21.20
2022-09-02T17:22:53.436Z,20.82
2022-09-02T17:25:26.493Z,21.12
2022-09-02T17:27:59.378Z,21.75
2022-09-02T17:30:33.253Z,21.03
2022-09-02T17:33:06.478Z,22.02
2022-09-02T17:35:39.497Z,22.73
2022-09-02T17:38:13.764Z,22.87
2022-09-02T17:41:05.035Z,22.87
2022-09-02T17:43:38.742Z,22.67
2022-09-02T17:49:15.880Z,23.00
2022-09-02T17:51:34.489Z,22.77
2022-09-02T17:54:10.420Z,23.73
2022-09-02T17:57:07.536Z,23.70
2022-09-02T18:00:10.962Z,23.18
2022-09-02T18:03:13.436Z,23.83
2022-09-02T18:06:15.322Z,22.52
2022-09-02T18:08:55.599Z,22.87
2022-09-02T18:11:29.879Z,23.47
2022-09-02T18:14:36.337Z,22.90
2022-09-02T18:17:40.230Z,25.12
2022-09-02T18:20:33.538Z,25.63
2022-09-02T18:23:39.839Z,26.27
2022-09-02T18:26:33.542Z,25.23
2022-09-02T18:29:46.363Z,26.20
2022-09-02T18:32:56.197Z,25.15
2022-09-02T18:36:12.566Z,25.05
2022-09-02T18:39:12.447Z,25.48
2022-09-02T18:42:25.301Z,27.37
2022-09-02T18:45:23.709Z,26.60
2022-09-02T18:48:04.900Z,27.70
2022-09-02T18:50:51.867Z,26.15
2022-09-02T18:53:31.959Z,28.30
2022-09-02T18:56:10.810Z,28.83
2022-09-02T18:58:53.895Z,27.95
2022-09-02T19:01:35.060Z,28.83
2022-09-02T19:04:08.362Z,29.77
2022-09-02T19:06:42.601Z,29.32
2022-09-02T19:09:17.389Z,30.50
2022-09-02T19:11:50.905Z,30.55
2022-09-02T19:14:30.277Z,33.33
2022-09-02T19:17:03.855Z,32.38
2022-09-02T19:19:38.270Z,32.25
2022-09-02T19:22:11.960Z,31.05
2022-09-02T19:24:47.951Z,32.40
2022-09-02T19:27:26.534Z,32.25
2022-09-02T19:30:16.133Z,32.28
2022-09-02T19:32:54.973Z,33.53
2022-09-02T19:35:30.571Z,33.08
2022-09-02T19:38:03.717Z,32.45
2022-09-02T19:40:38.623Z,32.53
2022-09-02T19:43:15.075Z,31.02
2022-09-02T19:45:50.958Z,32.53
2022-09-02T19:50:56.782Z,30.95
2022-09-02T19:53:33.130Z,31.00
2022-09-02T19:56:08.983Z,31.60
2022-09-02T19:58:41.895Z,32.00
2022-09-02T20:01:14.836Z,30.50
2022-09-02T20:03:49.002Z,31.62
2022-09-02T20:06:23.682Z,31.25
2022-09-02T20:08:57.029Z,30.32
2022-09-02T20:11:30.434Z,31.33
2022-09-02T20:14:04.594Z,30.05
2022-09-02T20:16:39.490Z,29.80
2022-09-02T20:19:16.119Z,30.27
2022-09-02T20:21:50.844Z,29.63
2022-09-02T20:24:27.686Z,29.70
2022-09-02T20:27:29.374Z,28.80
2022-09-02T20:30:12.301Z,29.95
2022-09-02T20:33:16.314Z,29.02
2022-09-02T20:36:20.442Z,28.83
2022-09-02T20:39:25.355Z,27.27
2022-09-02T20:42:24.900Z,27.62
2022-09-02T20:45:11.497Z,28.90
2022-09-02T20:48:10.627Z,27.22
2022-09-02T20:51:09.105Z,25.82
2022-09-02T20:54:06.031Z,25.17
2022-09-02T20:57:07.441Z,23.95
2022-09-02T21:00:05.086Z,24.67
2022-09-02T21:02:51.753Z,25.90
2022-09-02T21:05:36.298Z,24.05
2022-09-02T21:08:17.633Z,23.42
2022-09-02T21:10:55.230Z,24.02
2022-09-02T21:14:00.557Z,23.22
2022-09-02T21:16:42.649Z,22.13
2022-09-02T21:19:35.874Z,23.95
2022-09-02T21:22:18.839Z,21.35
2022-09-02T21:24:56.355Z,21.30
2022-09-02T21:27:42.291Z,19.40
2022-09-02T21:30:37.339Z,20.65
2022-09-02T21:33:13.129Z,19.77
2022-09-02T21:35:50.089Z,18.85
2022-09-02T21:38:39.977Z,19.52
2022-09-02T21:41:24.102Z,18.95
2022-09-02T21:44:07.428Z,18.20
2022-09-02T21:47:06.199Z,19.98
2022-09-02T21:50:22.147Z,19.50
2022-09-02T21:53:14.016Z,18.65
2022-09-02T21:56:09.073Z,19.52
2022-09-02T21:59:16.838Z,19.42
2022-09-02T22:02:24.832Z,20.32
2022-09-02T22:05:14.617Z,20.05
2022-09-02T22:08:01.579Z,20.68
2022-09-02T22:11:01.153Z,17.95
2022-09-02T22:13:34.780Z,18.15
2022-09-02T22:16:47.714Z,19.23
2022-09-02T22:19:22.081Z,19.17
2022-09-02T22:21:58.916Z,18.37
2022-09-02T22:24:33.958Z,17.67
2022-09-02T22:27:25.917Z,18.37
2022-09-02T22:30:14.803Z,18.50
2022-09-02T22:32:54.462Z,18.15
2022-09-02T22:35:45.370Z,17.42
2022-09-02T22:38:33.742Z,18.00
2022-09-02T22:41:31.362Z,16.48
2022-09-02T22:44:14.970Z,15.85
2022-09-02T22:47:25.305Z,16.62
2022-09-02T22:50:17.652Z,16.25
2022-09-02T22:52:52.261Z,16.10
2022-09-02T22:59:06.817Z,15.35
2022-09-02T23:02:20.550Z,15.08
2022-09-02T23:05:19.189Z,15.83
2022-09-02T23:07:52.781Z,16.25
2022-09-02T23:10:27.223Z,15.32
2022-09-02T23:13:04.456Z,14.83
2022-09-02T23:16:07.676Z,14.95
2022-09-02T23:18:55.864Z,13.88
2022-09-02T23:21:42.312Z,12.98
2022-09-02T23:24:27.372Z,13.08
2022-09-02T23:27:27.765Z,12.85
2022-09-02T23:30:02.010Z,12.37
2022-09-02T23:33:01.429Z,12.93
2022-09-02T23:35:53.461Z,12.88
2022-09-02T23:38:38.418Z,12.47
2022-09-02T23:41:12.875Z,13.13
2022-09-02T23:43:46.757Z,12.40
2022-09-02T23:46:25.670Z,12.40
2022-09-02T23:49:14.387Z,12.28
2022-09-02T23:52:12.720Z,12.53
2022-09-02T23:54:59.716Z,12.73
2022-09-02T23:57:56.137Z,12.53
